Time;durP1;ratioP1;P1;durP2;ratioP2;P2;SDS_P1;SDS_P2;PMS_P1;PMS_P2;Temp;Humidity;BMP_temperature;BMP_pressure;BME280_temperature;BME280_humidity;BME280_pressure;Samples;Min_cycle;Max_cycle;Signal;HPM_P1;HPM_P2
2021/08/09 04:31:04;;;;;;;9.03;2.40;;;11.70;99.90;;;;;;5819970;23;20518;-77
2021/08/09 04:33:30;;;;;;;2.77;2.50;;;11.70;99.90;;;;;;4932976;29;20445;-78
2021/08/09 04:35:56;;;;;;;7.20;2.40;;;11.70;99.90;;;;;;4935017;29;20268;-79
2021/08/09 04:38:21;;;;;;;2.77;2.57;;;11.70;99.90;;;;;;4935757;29;20538;-77
2021/08/09 04:40:47;;;;;;;2.40;2.20;;;11.80;99.90;;;;;;4927434;29;20484;-77
2021/08/09 04:43:12;;;;;;;3.43;2.17;;;11.90;99.90;;;;;;4915653;29;20205;-79
2021/08/09 04:45:38;;;;;;;3.87;2.30;;;11.90;99.90;;;;;;4916883;29;20567;-77
2021/08/09 04:48:04;;;;;;;2.47;2.23;;;12.00;99.90;;;;;;4916692;29;20185;-77
2021/08/09 04:50:29;;;;;;;2.80;1.97;;;12.10;99.90;;;;;;4914951;29;20194;-77
2021/08/09 04:52:55;;;;;;;3.30;2.40;;;12.30;99.90;;;;;;4916550;29;20429;-77
2021/08/09 04:55:21;;;;;;;4.47;2.60;;;12.30;99.90;;;;;;4916460;29;20894;-77
2021/08/09 04:57:47;;;;;;;2.50;2.30;;;12.40;99.90;;;;;;4914444;29;20452;-76
2021/08/09 05:00:14;;;;;;;5.90;2.37;;;12.50;99.90;;;;;;4916307;29;20287;-78
2021/08/09 05:02:39;;;;;;;2.60;2.10;;;12.60;99.90;;;;;;4915237;29;20204;-77
2021/08/09 05:05:05;;;;;;;3.50;2.10;;;12.70;99.90;;;;;;4914193;29;20517;-77
2021/08/09 05:07:31;;;;;;;4.67;2.07;;;12.80;99.90;;;;;;4915870;29;20246;-77
2021/08/09 05:09:56;;;;;;;2.90;2.13;;;13.00;99.90;;;;;;4916182;29;20423;-77
2021/08/09 05:12:22;;;;;;;3.70;2.77;;;13.00;99.90;;;;;;4915039;29;20303;-77
2021/08/09 05:14:47;;;;;;;4.43;2.37;;;13.10;99.90;;;;;;4916817;29;20222;-78
2021/08/09 05:17:13;;;;;;;3.20;2.00;;;13.20;99.90;;;;;;4915718;29;20224;-78
2021/08/09 05:19:41;;;;;;;3.40;1.80;;;13.30;99.90;;;;;;4914237;29;20209;-78
2021/08/09 05:22:06;;;;;;;4.77;1.70;;;13.40;99.90;;;;;;4915330;29;20551;-79
2021/08/09 05:24:34;;;;;;;2.03;1.50;;;13.50;99.90;;;;;;4915648;29;20449;-78
2021/08/09 05:27:00;;;;;;;4.57;1.50;;;13.70;99.90;;;;;;4915599;29;20174;-78
2021/08/09 05:29:25;;;;;;;3.80;1.50;;;14.00;99.90;;;;;;4915930;29;20413;-78
2021/08/09 05:31:51;;;;;;;5.40;1.60;;;14.20;99.90;;;;;;4915685;29;20576;-78
2021/08/09 05:34:16;;;;;;;3.07;1.70;;;14.60;99.90;;;;;;4915309;29;20224;-78
2021/08/09 05:36:44;;;;;;;4.07;1.93;;;15.10;99.90;;;;;;4915953;29;20196;-78
2021/08/09 05:39:10;;;;;;;3.60;1.50;;;15.50;99.90;;;;;;4915257;29;20229;-78
2021/08/09 05:41:37;;;;;;;3.87;1.50;;;15.90;99.90;;;;;;4914383;29;20445;-80
2021/08/09 05:44:02;;;;;;;4.67;1.73;;;16.20;99.90;;;;;;4914725;29;20434;-77
2021/08/09 05:46:28;;;;;;;1.40;1.30;;;16.50;99.90;;;;;;4915821;29;20441;-80
2021/08/09 05:48:53;;;;;;;5.70;1.43;;;16.70;99.90;;;;;;4915370;29;20261;-78
2021/08/09 05:51:19;;;;;;;2.00;1.70;;;17.00;99.90;;;;;;4915106;29;20213;-78
2021/08/09 05:53:44;;;;;;;1.50;1.30;;;17.40;99.90;;;;;;4915339;29;20608;-79
2021/08/09 05:56:10;;;;;;;1.63;1.20;;;17.60;99.90;;;;;;4915046;29;20193;-76
2021/08/09 05:58:37;;;;;;;5.40;1.40;;;17.80;99.90;;;;;;4915060;29;20259;-77
2021/08/09 06:01:03;;;;;;;1.70;1.60;;;18.10;99.90;;;;;;4915150;29;20205;-78
2021/08/09 06:03:29;;;;;;;3.60;1.37;;;18.30;99.90;;;;;;4915352;29;20422;-79
2021/08/09 06:05:54;;;;;;;3.97;1.30;;;18.50;99.90;;;;;;4915585;29;20739;-78
2021/08/09 06:08:20;;;;;;;1.67;1.37;;;18.60;99.90;;;;;;4915477;29;20177;-79
2021/08/09 06:10:46;;;;;;;2.80;1.40;;;18.80;99.90;;;;;;4913755;29;20229;-77
2021/08/09 06:13:12;;;;;;;5.30;1.40;;;19.00;99.90;;;;;;4915338;29;20508;-79
2021/08/09 06:15:38;;;;;;;2.90;1.50;;;19.10;99.90;;;;;;4914788;29;20446;-78
2021/08/09 06:18:03;;;;;;;1.40;1.07;;;19.30;99.90;;;;;;4915258;29;20506;-78
2021/08/09 06:20:29;;;;;;;2.20;1.33;;;19.30;99.90;;;;;;4914998;29;20300;-81
2021/08/09 06:22:56;;;;;;;5.33;1.30;;;19.50;99.90;;;;;;4918477;29;20206;-80
2021/08/09 06:25:23;;;;;;;2.60;1.23;;;19.60;99.90;;;;;;4917174;29;20186;-81
2021/08/09 06:27:49;;;;;;;2.13;1.73;;;19.70;99.90;;;;;;4917489;29;20438;-81
2021/08/09 06:30:15;;;;;;;1.57;1.30;;;19.80;99.90;;;;;;4917852;29;20989;-80
2021/08/09 06:32:41;;;;;;;1.20;1.10;;;19.70;99.90;;;;;;4918597;29;20457;-80
2021/08/09 06:35:07;;;;;;;3.07;1.83;;;20.00;99.90;;;;;;4917410;29;20259;-80
2021/08/09 06:37:34;;;;;;;1.57;1.40;;;20.10;99.90;;;;;;4917558;29;20186;-81
2021/08/09 06:40:00;;;;;;;1.87;1.50;;;20.00;99.90;;;;;;4918115;29;20528;-80
2021/08/09 06:42:25;;;;;;;1.63;1.20;;;20.30;99.90;;;;;;4918128;29;20561;-80
2021/08/09 06:44:51;;;;;;;2.60;1.33;;;20.40;99.90;;;;;;4918891;29;20237;-81
2021/08/09 06:47:17;;;;;;;2.13;1.50;;;20.70;99.90;;;;;;4917264;29;20445;-80
2021/08/09 06:49:42;;;;;;;3.60;1.90;;;21.10;99.90;;;;;;4918972;29;20667;-80
2021/08/09 06:52:08;;;;;;;1.63;1.27;;;21.60;99.90;;;;;;4917345;29;20210;-80
2021/08/09 06:54:33;;;;;;;2.47;1.20;;;21.40;99.90;;;;;;4899857;29;20243;-80
2021/08/09 06:56:59;;;;;;;3.50;1.37;;;21.40;99.90;;;;;;4908958;29;20686;-80
2021/08/09 06:59:24;;;;;;;3.30;1.10;;;21.50;99.90;;;;;;4919101;29;20205;-80
2021/08/09 07:01:50;;;;;;;1.60;1.30;;;21.50;99.90;;;;;;4918227;29;20706;-80
2021/08/09 07:04:15;;;;;;;1.47;1.10;;;21.50;99.90;;;;;;4917780;29;20201;-81
2021/08/09 07:06:41;;;;;;;1.77;1.20;;;21.70;99.90;;;;;;4918893;29;20723;-81
2021/08/09 07:09:06;;;;;;;1.60;0.90;;;21.90;99.90;;;;;;4919420;29;20186;-79
2021/08/09 07:11:32;;;;;;;1.47;0.87;;;22.00;99.90;;;;;;4917129;29;20210;-78
2021/08/09 07:13:58;;;;;;;4.70;1.03;;;22.00;99.90;;;;;;4919719;29;20626;-80
2021/08/09 07:16:25;;;;;;;5.20;1.33;;;22.20;99.90;;;;;;4922668;29;20585;-81
2021/08/09 07:18:51;;;;;;;1.30;0.93;;;22.30;99.90;;;;;;4921640;29;20230;-80
2021/08/09 07:21:16;;;;;;;2.43;0.97;;;22.60;99.90;;;;;;4920431;29;20465;-78
2021/08/09 07:23:43;;;;;;;4.13;1.13;;;22.60;99.90;;;;;;4920049;29;20449;-79
2021/08/09 07:26:08;;;;;;;4.13;1.20;;;22.70;99.90;;;;;;4920001;29;20247;-81
2021/08/09 07:28:34;;;;;;;1.33;1.07;;;23.10;99.90;;;;;;4920528;29;20966;-80
2021/08/09 07:30:59;;;;;;;3.33;1.23;;;23.60;99.90;;;;;;4921816;29;20198;-80
2021/08/09 07:33:26;;;;;;;1.83;1.27;;;23.80;99.90;;;;;;4920180;29;20578;-80
2021/08/09 07:35:52;;;;;;;1.10;0.90;;;23.70;99.90;;;;;;4909762;29;20197;-79
2021/08/09 07:38:17;;;;;;;1.13;1.03;;;23.60;99.90;;;;;;4919553;29;20438;-79
2021/08/09 07:40:43;;;;;;;1.77;1.00;;;23.80;99.90;;;;;;4920075;29;20597;-79
2021/08/09 07:43:08;;;;;;;2.30;1.10;;;24.10;99.90;;;;;;4920729;29;20240;-80
2021/08/09 07:45:34;;;;;;;0.87;0.70;;;24.20;99.90;;;;;;4919423;29;20273;-80
2021/08/09 07:47:59;;;;;;;5.00;0.90;;;24.00;99.90;;;;;;4921700;29;20578;-81
2021/08/09 07:50:25;;;;;;;0.77;0.70;;;24.10;99.90;;;;;;4920158;29;20189;-79
2021/08/09 07:52:51;;;;;;;3.77;1.20;;;24.40;99.90;;;;;;4920621;29;20762;-79
2021/08/09 07:55:16;;;;;;;1.57;1.00;;;24.50;99.90;;;;;;4918409;29;20277;-79
2021/08/09 07:57:42;;;;;;;4.87;0.70;;;24.50;99.90;;;;;;4919555;29;20241;-79
2021/08/09 08:00:09;;;;;;;2.10;0.83;;;24.60;99.90;;;;;;4919044;29;20669;-80
2021/08/09 08:02:35;;;;;;;2.10;0.93;;;24.90;99.90;;;;;;4919853;29;20201;-78
2021/08/09 08:05:01;;;;;;;2.40;1.10;;;24.90;99.90;;;;;;4918614;29;20529;-79
2021/08/09 08:07:26;;;;;;;0.83;0.73;;;24.80;99.90;;;;;;4918305;29;20181;-78
2021/08/09 08:09:52;;;;;;;2.03;1.17;;;24.50;99.90;;;;;;4917435;29;20193;-79
2021/08/09 08:12:17;;;;;;;1.43;0.90;;;24.50;99.90;;;;;;4918093;29;20206;-79
2021/08/09 08:14:43;;;;;;;1.87;0.93;;;24.80;99.90;;;;;;4918791;29;20205;-79
2021/08/09 08:17:09;;;;;;;1.53;1.17;;;25.00;99.90;;;;;;4917530;29;20201;-79
2021/08/09 08:19:34;;;;;;;2.13;1.10;;;25.40;99.90;;;;;;4918903;29;20210;-80
2021/08/09 08:22:00;;;;;;;5.40;1.80;;;25.50;99.90;;;;;;4920379;29;20683;-80
2021/08/09 08:24:27;;;;;;;4.30;1.07;;;25.90;99.90;;;;;;4917847;29;20558;-79
2021/08/09 08:26:53;;;;;;;3.90;0.87;;;26.20;99.90;;;;;;4916935;29;20535;-78
2021/08/09 08:29:19;;;;;;;0.80;0.80;;;26.50;99.90;;;;;;4917320;29;20488;-80
2021/08/09 08:31:44;;;;;;;2.20;0.80;;;26.80;99.90;;;;;;4918670;29;20532;-80
2021/08/09 08:34:10;;;;;;;1.27;0.60;;;26.40;99.90;;;;;;4918339;29;20194;-79
2021/08/09 08:36:35;;;;;;;1.53;0.90;;;26.20;99.90;;;;;;4918728;29;20209;-80
2021/08/09 08:39:01;;;;;;;1.80;0.80;;;26.20;99.90;;;;;;4918885;29;20217;-79
2021/08/09 08:41:27;;;;;;;1.93;0.93;;;26.20;99.90;;;;;;4919099;29;20217;-78
2021/08/09 08:43:52;;;;;;;2.37;0.80;;;26.30;99.90;;;;;;4920088;29;20181;-80
2021/08/09 08:46:19;;;;;;;2.90;0.80;;;26.60;99.90;;;;;;4918585;29;20221;-81
2021/08/09 08:48:46;;;;;;;0.80;0.60;;;26.80;99.90;;;;;;4918897;29;20196;-79
2021/08/09 08:51:12;;;;;;;4.93;0.70;;;26.50;99.90;;;;;;4916578;29;20513;-79
2021/08/09 08:53:37;;;;;;;2.97;0.73;;;26.60;99.90;;;;;;4918036;29;20921;-78
2021/08/09 08:56:08;;;;;;;0.90;0.50;;;26.80;99.90;;;;;;4919542;29;20722;-80
2021/08/09 08:58:33;;;;;;;2.25;0.70;;;26.80;99.90;;;;;;4917135;29;20508;-81
2021/08/09 09:00:59;;;;;;;1.47;0.70;;;27.10;99.90;;;;;;4916363;29;20454;-80
2021/08/09 09:03:26;;;;;;;0.70;0.60;;;27.10;99.90;;;;;;4918097;29;20186;-81
2021/08/09 09:05:58;;;;;;;3.33;0.70;;;27.10;99.90;;;;;;4918396;29;20582;-79
2021/08/09 09:08:42;;;;;;;1.73;0.90;;;27.40;99.90;;;;;;4913457;29;21115;-79
2021/08/09 09:11:30;;;;;;;0.83;0.83;;;27.70;99.90;;;;;;4917020;29;21063;-79
2021/08/09 09:14:00;;;;;;;2.53;0.70;;;28.00;99.90;;;;;;4909544;29;20528;-78
2021/08/09 09:16:46;;;;;;;1.63;0.60;;;27.70;99.90;;;;;;4916406;29;20422;-80
2021/08/09 09:19:28;;;;;;;1.10;0.50;;;28.00;99.90;;;;;;4916314;29;20513;-79
2021/08/09 09:21:53;;;;;;;2.13;0.70;;;27.40;99.90;;;;;;4916715;29;20513;-80
2021/08/09 09:24:22;;;;;;;1.00;0.60;;;26.80;99.90;;;;;;4916112;29;20458;-79
2021/08/09 09:26:55;;;;;;;1.50;0.63;;;26.50;99.90;;;;;;4914797;29;21035;-80
2021/08/09 09:29:20;;;;;;;2.57;0.70;;;26.50;99.90;;;;;;4915428;29;20493;-80
2021/08/09 09:31:48;;;;;;;1.03;0.80;;;26.50;99.90;;;;;;4916382;29;20462;-79
2021/08/09 09:34:16;;;;;;;2.30;0.70;;;26.60;99.90;;;;;;4915714;29;20208;-80
2021/08/09 09:37:00;;;;;;;1.33;0.70;;;26.60;99.90;;;;;;4915787;29;20920;-79
2021/08/09 09:39:28;;;;;;;1.20;0.77;;;26.90;99.90;;;;;;4915468;29;20477;-79
2021/08/09 09:41:54;;;;;;;0.73;0.60;;;26.70;99.90;;;;;;4915698;29;20494;-79
2021/08/09 09:44:22;;;;;;;0.97;0.70;;;27.00;99.90;;;;;;4916050;29;20768;-79
2021/08/09 09:46:47;;;;;;;1.70;1.07;;;27.90;99.90;;;;;;4915541;29;20916;-80
2021/08/09 09:49:31;;;;;;;1.53;0.90;;;28.40;99.90;;;;;;4916653;29;20497;-80
2021/08/09 09:51:57;;;;;;;4.83;1.33;;;28.60;99.90;;;;;;4916059;29;20277;-80
2021/08/09 09:54:23;;;;;;;0.97;0.60;;;28.70;99.90;;;;;;4915428;29;20429;-79
2021/08/09 09:56:50;;;;;;;1.90;0.73;;;28.90;99.90;;;;;;4915928;29;20648;-80
2021/08/09 09:59:16;;;;;;;2.67;1.17;;;29.00;99.90;;;;;;4916318;29;20461;-80
2021/08/09 10:01:42;;;;;;;1.37;0.70;;;28.50;99.90;;;;;;4914195;29;20472;-79
2021/08/09 10:04:08;;;;;;;4.93;0.90;;;28.30;99.90;;;;;;4914947;29;20517;-79
2021/08/09 10:06:37;;;;;;;1.10;1.10;;;28.70;99.90;;;;;;4914625;29;20273;-79
2021/08/09 10:09:05;;;;;;;1.00;0.90;;;29.00;99.90;;;;;;4915755;29;20190;-79
2021/08/09 10:11:32;;;;;;;2.40;0.77;;;29.40;99.90;;;;;;4915339;29;20449;-79
2021/08/09 10:13:59;;;;;;;1.03;0.70;;;29.60;99.90;;;;;;4915319;29;20481;-79
2021/08/09 10:16:33;;;;;;;3.80;0.70;;;28.50;99.90;;;;;;4915502;29;20501;-79
2021/08/09 10:19:00;;;;;;;1.00;0.90;;;27.60;99.90;;;;;;4915122;29;21035;-79
2021/08/09 10:21:30;;;;;;;1.80;0.80;;;28.00;99.90;;;;;;4914921;29;20473;-79
2021/08/09 10:23:55;;;;;;;2.90;0.97;;;28.00;99.90;;;;;;4911218;29;20443;-79
2021/08/09 10:26:27;;;;;;;1.37;0.90;;;27.40;99.90;;;;;;4916016;29;20426;-79
2021/08/09 10:28:53;;;;;;;1.33;0.90;;;27.20;99.90;;;;;;4915199;29;20194;-79
2021/08/09 10:31:22;;;;;;;1.37;0.70;;;27.40;99.90;;;;;;4915396;29;20453;-72
2021/08/09 10:33:49;;;;;;;1.43;0.80;;;26.80;99.90;;;;;;4914687;29;20190;-73
2021/08/09 10:36:17;;;;;;;1.10;0.70;;;26.50;99.90;;;;;;4914776;29;20501;-72
2021/08/09 10:38:44;;;;;;;2.03;0.80;;;26.80;99.90;;;;;;4914531;29;20525;-73
2021/08/09 10:41:10;;;;;;;0.93;0.80;;;27.50;99.90;;;;;;4914748;29;20446;-73
2021/08/09 10:44:09;;;;;;;1.03;1.00;;;28.20;99.90;;;;;;4914761;29;20425;-72
2021/08/09 10:46:36;;;;;;;1.40;0.87;;;28.70;99.90;;;;;;4914580;29;20189;-73
2021/08/09 10:49:03;;;;;;;1.10;0.90;;;29.50;99.90;;;;;;4918239;29;20422;-74
2021/08/09 10:51:50;;;;;;;1.87;1.67;;;29.80;99.90;;;;;;4917981;29;20473;-74
2021/08/09 10:54:35;;;;;;;1.67;0.80;;;29.60;99.90;;;;;;4918495;29;20418;-73
2021/08/09 10:57:02;;;;;;;2.43;1.50;;;29.40;99.90;;;;;;4917615;29;20943;-73
2021/08/09 10:59:47;;;;;;;2.33;0.80;;;29.00;99.90;;;;;;4917388;29;20845;-74
2021/08/09 11:02:20;;;;;;;3.07;1.20;;;29.30;99.90;;;;;;4917576;29;20904;-73
2021/08/09 11:05:14;;;;;;;4.10;1.23;;;29.60;99.90;;;;;;4918554;29;20461;-74
2021/08/09 11:07:41;;;;;;;1.13;0.70;;;29.10;99.90;;;;;;4915761;29;20442;-73
2021/08/09 11:10:07;;;;;;;1.00;0.90;;;29.00;99.90;;;;;;4916362;29;21002;-73
2021/08/09 11:12:32;;;;;;;1.00;1.00;;;29.10;99.90;;;;;;4917562;29;20553;-73
2021/08/09 11:17:49;;;;;;;2.87;0.90;;;29.00;99.90;;;;;;4917258;29;20644;-73
2021/08/09 11:20:25;;;;;;;2.73;0.83;;;29.30;99.90;;;;;;4899808;29;20497;-73
2021/08/09 11:23:07;;;;;;;2.70;0.80;;;29.00;99.90;;;;;;4916945;29;20465;-73
2021/08/09 11:25:43;;;;;;;2.57;0.77;;;29.00;99.90;;;;;;4918120;29;20425;-73
2021/08/09 11:28:13;;;;;;;2.50;1.27;;;28.30;99.90;;;;;;4917053;29;20437;-72
2021/08/09 11:30:48;;;;;;;2.97;0.90;;;28.10;99.90;;;;;;4916955;29;20477;-73
2021/08/09 11:33:25;;;;;;;1.13;0.87;;;28.30;99.90;;;;;;4917200;29;20457;-73
2021/08/09 11:35:51;;;;;;;2.20;1.00;;;28.40;99.90;;;;;;4911523;29;20449;-73
2021/08/09 11:38:17;;;;;;;1.80;0.90;;;28.80;99.90;;;;;;4917190;29;20814;-73
2021/08/09 11:40:47;;;;;;;1.20;0.90;;;28.40;99.90;;;;;;4915738;29;20476;-75
2021/08/09 11:43:25;;;;;;;1.80;0.83;;;27.90;99.90;;;;;;4915109;29;20435;-73
2021/08/09 11:45:53;;;;;;;2.63;0.77;;;27.10;99.90;;;;;;4915860;29;20500;-73
2021/08/09 11:48:29;;;;;;;3.60;0.80;;;26.70;99.90;;;;;;4917392;29;20429;-74
2021/08/09 11:51:00;;;;;;;2.33;0.87;;;26.60;99.90;;;;;;4916500;29;20472;-74
2021/08/09 11:53:27;;;;;;;2.40;0.90;;;26.80;99.90;;;;;;4917547;29;20445;-74
2021/08/09 11:56:18;;;;;;;1.97;1.20;;;27.00;99.90;;;;;;4916914;29;20525;-74
2021/08/09 11:58:43;;;;;;;2.77;1.23;;;27.20;99.90;;;;;;4916997;29;20429;-72
2021/08/09 12:01:17;;;;;;;0.73;0.67;;;27.30;99.90;;;;;;4913629;29;20466;-73
2021/08/09 12:04:00;;;;;;;3.27;0.97;;;27.30;99.90;;;;;;4917777;29;20599;-73
2021/08/09 12:06:26;;;;;;;1.87;0.80;;;27.10;99.90;;;;;;4916668;29;20437;-73
2021/08/09 12:08:52;;;;;;;1.43;0.73;;;27.20;99.90;;;;;;4917366;29;20807;-73
2021/08/09 12:11:23;;;;;;;2.00;1.00;;;27.40;99.90;;;;;;4916527;29;20278;-73
2021/08/09 12:14:07;;;;;;;3.47;0.73;;;27.30;99.90;;;;;;4916947;29;20501;-72
2021/08/09 12:16:44;;;;;;;3.73;0.90;;;27.60;99.90;;;;;;4916806;29;20517;-72
2021/08/09 12:19:13;;;;;;;1.33;0.70;;;27.60;99.90;;;;;;4916934;29;20485;-72
2021/08/09 12:21:39;;;;;;;2.47;1.00;;;27.70;99.90;;;;;;4914719;29;20469;-71
2021/08/09 12:24:13;;;;;;;4.60;1.13;;;27.70;99.90;;;;;;4916782;29;20418;-71
2021/08/09 12:26:38;;;;;;;2.33;0.90;;;27.60;99.90;;;;;;4916877;29;20911;-73
2021/08/09 12:29:06;;;;;;;1.10;0.70;;;27.20;99.90;;;;;;4916358;29;20445;-74
2021/08/09 12:31:45;;;;;;;1.53;0.97;;;26.80;99.90;;;;;;4916757;29;20212;-73
2021/08/09 12:34:11;;;;;;;2.67;0.97;;;26.40;99.90;;;;;;4916433;29;20525;-72
2021/08/09 12:36:38;;;;;;;1.77;1.00;;;26.40;99.90;;;;;;4916369;29;20441;-73
2021/08/09 12:39:06;;;;;;;1.60;0.93;;;26.30;99.90;;;;;;4916129;29;20560;-73
2021/08/09 12:41:33;;;;;;;0.80;0.80;;;26.00;99.90;;;;;;4916642;29;20434;-73
2021/08/09 12:43:59;;;;;;;1.03;0.80;;;26.20;99.90;;;;;;4916268;29;20462;-72
2021/08/09 12:46:26;;;;;;;1.80;0.93;;;26.40;99.90;;;;;;4916121;29;20448;-74
2021/08/09 12:48:53;;;;;;;2.30;0.90;;;26.50;99.90;;;;;;4916012;29;20438;-72
2021/08/09 12:51:20;;;;;;;0.90;0.90;;;26.30;99.90;;;;;;4905122;29;20464;-72
2021/08/09 12:53:45;;;;;;;1.33;0.80;;;26.10;99.90;;;;;;4915957;29;20469;-72
2021/08/09 12:56:11;;;;;;;2.10;1.00;;;26.10;99.90;;;;;;4915718;29;21139;-72
2021/08/09 12:58:37;;;;;;;2.03;0.97;;;26.20;99.90;;;;;;4916712;29;20174;-72
2021/08/09 13:01:04;;;;;;;3.57;1.23;;;26.50;99.90;;;;;;4915549;29;20762;-72
2021/08/09 13:03:29;;;;;;;0.90;0.90;;;26.50;99.90;;;;;;4916552;29;20174;-73
2021/08/09 13:05:55;;;;;;;1.30;1.00;;;26.60;99.90;;;;;;4915675;29;20442;-72
2021/08/09 13:08:21;;;;;;;1.73;0.80;;;26.70;99.90;;;;;;4916305;29;20746;-71
2021/08/09 13:10:47;;;;;;;5.00;0.87;;;26.70;99.90;;;;;;4914920;29;20197;-72
2021/08/09 13:13:12;;;;;;;2.00;0.80;;;26.60;99.90;;;;;;4913410;29;20438;-73
2021/08/09 13:15:39;;;;;;;2.30;1.23;;;26.50;99.90;;;;;;4914868;29;20190;-72
2021/08/09 13:18:05;;;;;;;1.63;1.30;;;26.40;99.90;;;;;;4915428;29;20696;-74
2021/08/09 13:20:30;;;;;;;2.50;1.40;;;26.20;99.90;;;;;;4915562;29;20544;-72
2021/08/09 13:22:56;;;;;;;2.30;1.20;;;26.00;99.90;;;;;;4915413;29;20190;-72
2021/08/09 13:25:22;;;;;;;5.60;0.87;;;25.90;99.90;;;;;;4916034;29;20182;-73
2021/08/09 13:27:48;;;;;;;1.83;1.07;;;25.80;99.90;;;;;;4914935;29;20185;-72
2021/08/09 13:30:13;;;;;;;2.77;1.13;;;25.70;99.90;;;;;;4915807;29;20441;-72
2021/08/09 13:32:39;;;;;;;1.97;0.97;;;25.60;99.90;;;;;;4915498;29;20304;-73
2021/08/09 13:35:05;;;;;;;1.07;0.97;;;25.60;99.90;;;;;;4915266;29;20258;-73
2021/08/09 13:37:31;;;;;;;2.40;1.03;;;25.20;99.90;;;;;;4915436;29;20231;-72
2021/08/09 13:39:58;;;;;;;2.53;0.90;;;25.30;99.90;;;;;;4916013;29;20237;-72
2021/08/09 13:42:24;;;;;;;5.03;0.97;;;25.40;99.90;;;;;;4915152;29;20994;-73
2021/08/09 13:44:49;;;;;;;3.77;1.00;;;25.50;99.90;;;;;;4915703;29;20465;-73
2021/08/09 13:47:15;;;;;;;3.93;1.40;;;25.60;99.90;;;;;;4915633;29;20189;-73
2021/08/09 13:49:41;;;;;;;2.20;1.00;;;25.70;99.90;;;;;;4914587;29;20198;-73
2021/08/09 13:52:07;;;;;;;2.00;0.83;;;25.90;99.90;;;;;;4914596;29;20209;-73
2021/08/09 13:54:32;;;;;;;2.00;0.90;;;26.00;99.90;;;;;;4915152;29;20446;-72
2021/08/09 13:56:58;;;;;;;2.30;1.03;;;26.10;99.90;;;;;;4915431;29;20209;-72
2021/08/09 13:59:23;;;;;;;3.30;1.00;;;26.00;99.90;;;;;;4897933;29;20236;-74
2021/08/09 14:01:49;;;;;;;1.33;1.07;;;26.10;99.90;;;;;;4914681;29;20305;-73
2021/08/09 14:04:15;;;;;;;3.13;0.80;;;26.20;99.90;;;;;;4907582;29;20201;-73
2021/08/09 14:06:40;;;;;;;2.10;1.20;;;26.10;99.90;;;;;;4914910;29;20277;-74
2021/08/09 14:09:06;;;;;;;1.80;1.20;;;26.10;99.90;;;;;;4914964;29;20182;-73
2021/08/09 14:11:31;;;;;;;1.17;1.07;;;26.20;99.90;;;;;;4904936;29;20952;-73
2021/08/09 14:13:57;;;;;;;1.53;1.00;;;26.10;99.90;;;;;;4910487;29;20264;-73
2021/08/09 14:16:22;;;;;;;0.80;0.80;;;26.10;99.90;;;;;;4899425;29;20190;-75
2021/08/09 14:18:48;;;;;;;2.63;1.17;;;26.00;99.90;;;;;;4893577;29;20186;-73
2021/08/09 14:21:13;;;;;;;1.83;1.00;;;25.90;99.90;;;;;;4902745;29;20296;-73
2021/08/09 14:23:39;;;;;;;1.23;0.90;;;26.00;99.90;;;;;;4919581;29;20193;-74
2021/08/09 14:26:04;;;;;;;3.30;1.10;;;25.90;99.90;;;;;;4917752;29;20614;-74
2021/08/09 14:28:31;;;;;;;1.23;0.77;;;25.80;99.90;;;;;;4918573;29;20272;-72
2021/08/09 14:30:57;;;;;;;1.67;0.97;;;25.80;99.90;;;;;;4904562;29;20280;-72
2021/08/09 14:33:22;;;;;;;1.20;1.00;;;25.80;99.90;;;;;;4917722;29;20457;-72
2021/08/09 14:35:48;;;;;;;1.00;0.87;;;25.80;99.90;;;;;;4917428;29;20193;-73
2021/08/09 14:38:14;;;;;;;1.27;0.90;;;25.80;99.90;;;;;;4917935;29;20682;-74
2021/08/09 14:40:40;;;;;;;1.20;1.07;;;25.80;99.90;;;;;;4918982;29;20368;-73
2021/08/09 14:43:06;;;;;;;1.10;0.97;;;26.00;99.90;;;;;;4917059;29;20533;-73
2021/08/09 14:45:33;;;;;;;1.97;1.47;;;26.10;99.90;;;;;;4918505;29;20200;-73
2021/08/09 14:47:59;;;;;;;2.60;1.10;;;26.20;99.90;;;;;;4915569;29;20515;-73
2021/08/09 14:50:24;;;;;;;2.00;0.80;;;26.10;99.90;;;;;;4907322;29;20849;-73
2021/08/09 14:52:50;;;;;;;3.73;1.13;;;26.00;99.90;;;;;;4916732;29;20481;-73
2021/08/09 14:55:16;;;;;;;2.70;1.00;;;25.90;99.90;;;;;;4905603;29;20206;-72
2021/08/09 14:57:41;;;;;;;1.73;1.10;;;25.70;99.90;;;;;;4903437;29;20749;-72
2021/08/09 15:00:07;;;;;;;1.83;1.00;;;25.60;99.90;;;;;;4916833;29;20572;-74
2021/08/09 15:02:33;;;;;;;2.10;0.90;;;25.50;99.90;;;;;;4917296;29;20995;-74
2021/08/09 15:04:59;;;;;;;5.67;1.23;;;25.40;99.90;;;;;;4917681;29;20524;-72
2021/08/09 15:07:25;;;;;;;1.53;1.10;;;25.40;99.90;;;;;;4917730;29;20584;-73
2021/08/09 15:09:50;;;;;;;2.40;1.37;;;25.40;99.90;;;;;;4917990;29;20449;-73
2021/08/09 15:12:16;;;;;;;3.63;1.30;;;25.60;99.90;;;;;;4914817;29;20776;-74
2021/08/09 15:14:41;;;;;;;1.10;1.10;;;25.60;99.90;;;;;;4910697;29;20659;-73
2021/08/09 15:17:07;;;;;;;2.40;1.23;;;25.60;99.90;;;;;;4906355;29;20202;-73
2021/08/09 15:19:33;;;;;;;0.87;0.87;;;25.50;99.90;;;;;;4902199;29;20330;-74
2021/08/09 15:21:59;;;;;;;2.47;1.03;;;25.60;99.90;;;;;;4917805;29;20202;-73
2021/08/09 15:24:25;;;;;;;3.13;1.17;;;25.60;99.90;;;;;;4917204;29;20795;-73
2021/08/09 15:26:50;;;;;;;3.47;1.10;;;25.60;99.90;;;;;;4917953;29;20493;-72
2021/08/09 15:29:16;;;;;;;1.03;0.90;;;25.50;99.90;;;;;;4917766;29;20531;-73
2021/08/09 15:31:42;;;;;;;3.30;1.60;;;25.50;99.90;;;;;;4918465;29;20292;-73
2021/08/09 15:34:08;;;;;;;2.33;1.10;;;25.40;99.90;;;;;;4914644;29;20549;-72
2021/08/09 15:36:33;;;;;;;1.87;1.47;;;25.20;99.90;;;;;;4914661;29;20452;-73
2021/08/09 15:38:59;;;;;;;5.37;1.07;;;25.10;99.90;;;;;;4904445;29;20743;-71
2021/08/09 15:41:24;;;;;;;1.90;1.00;;;24.90;99.90;;;;;;4907228;29;20216;-73
2021/08/09 15:43:50;;;;;;;1.90;1.20;;;24.80;99.90;;;;;;4906599;29;20190;-73
2021/08/09 15:46:22;;;;;;;1.83;1.30;;;24.70;99.90;;;;;;4904934;29;20302;-74
2021/08/09 15:48:48;;;;;;;0.83;0.83;;;24.60;99.90;;;;;;4913911;29;20189;-74
2021/08/09 15:51:14;;;;;;;1.80;0.90;;;24.60;99.90;;;;;;4915290;29;20466;-72
2021/08/09 15:53:41;;;;;;;1.50;1.10;;;24.50;99.90;;;;;;4916698;29;20567;-72
2021/08/09 15:56:08;;;;;;;1.00;0.90;;;24.50;99.90;;;;;;4917328;29;20193;-73
2021/08/09 15:58:34;;;;;;;1.17;1.07;;;24.40;99.90;;;;;;4916356;29;20809;-73
2021/08/09 16:00:59;;;;;;;1.57;1.10;;;24.30;99.90;;;;;;4917092;29;20484;-73
2021/08/09 16:03:26;;;;;;;2.20;1.40;;;24.20;99.90;;;;;;4916491;29;20445;-72
2021/08/09 16:05:51;;;;;;;2.00;1.10;;;24.10;99.90;;;;;;4915228;29;20195;-72
2021/08/09 16:08:17;;;;;;;2.10;0.90;;;24.10;99.90;;;;;;4916515;29;20426;-73
2021/08/09 16:10:43;;;;;;;1.40;0.90;;;24.10;99.90;;;;;;4916626;29;20193;-72
2021/08/09 16:13:08;;;;;;;4.23;1.63;;;24.10;99.90;;;;;;4916689;29;20189;-72
2021/08/09 16:15:35;;;;;;;2.43;1.00;;;24.10;99.90;;;;;;4916442;29;20651;-73
2021/08/09 16:18:02;;;;;;;0.93;0.93;;;24.10;99.90;;;;;;4917221;29;20178;-71
2021/08/09 16:20:28;;;;;;;2.03;1.00;;;24.10;99.90;;;;;;4916125;29;20564;-75
2021/08/09 16:22:54;;;;;;;2.73;0.80;;;24.10;99.90;;;;;;4916898;29;20876;-75
2021/08/09 16:25:19;;;;;;;1.20;1.10;;;24.00;99.90;;;;;;4916284;29;20528;-73
2021/08/09 16:27:45;;;;;;;3.27;0.93;;;24.00;99.90;;;;;;4917075;29;20178;-73
2021/08/09 16:30:11;;;;;;;1.43;1.17;;;23.90;99.90;;;;;;4916542;29;20198;-73
2021/08/09 16:32:36;;;;;;;2.27;0.83;;;23.70;99.90;;;;;;4915984;29;20225;-73
2021/08/09 16:35:03;;;;;;;1.40;1.30;;;23.70;99.90;;;;;;4915658;29;20446;-74
2021/08/09 16:37:29;;;;;;;2.60;1.17;;;23.70;99.90;;;;;;4915614;29;20571;-72
2021/08/09 16:39:54;;;;;;;1.70;1.30;;;23.60;99.90;;;;;;4915632;29;20594;-73
2021/08/09 16:42:20;;;;;;;2.03;1.23;;;23.60;99.90;;;;;;4915640;29;20466;-72
2021/08/09 16:44:46;;;;;;;4.13;1.00;;;23.60;99.90;;;;;;4915632;29;20544;-73
2021/08/09 16:47:11;;;;;;;1.97;1.60;;;23.50;99.90;;;;;;4915765;29;20232;-72
2021/08/09 16:49:37;;;;;;;1.03;0.93;;;23.40;99.90;;;;;;4916760;29;20189;-73
2021/08/09 16:52:02;;;;;;;2.83;1.33;;;23.40;99.90;;;;;;4915193;29;20208;-73
2021/08/09 16:54:28;;;;;;;2.30;1.03;;;23.40;99.90;;;;;;4916380;29;20182;-73
2021/08/09 16:56:53;;;;;;;5.03;1.87;;;23.30;99.90;;;;;;4916133;29;20272;-75
2021/08/09 16:59:19;;;;;;;1.37;1.23;;;23.20;99.90;;;;;;4916281;29;20210;-73
2021/08/09 17:01:44;;;;;;;1.20;1.10;;;23.20;99.90;;;;;;4916177;29;20198;-73
2021/08/09 17:04:11;;;;;;;5.30;1.20;;;23.10;99.90;;;;;;4915226;29;20194;-74
2021/08/09 17:06:38;;;;;;;1.70;1.23;;;23.10;99.90;;;;;;4915713;29;20216;-73
2021/08/09 17:09:03;;;;;;;1.77;1.10;;;23.10;99.90;;;;;;4915530;29;20498;-73
2021/08/09 17:11:29;;;;;;;0.87;0.87;;;23.10;99.90;;;;;;4915897;29;20853;-73
2021/08/09 17:13:55;;;;;;;2.00;1.37;;;23.00;99.90;;;;;;4915139;29;20688;-75
2021/08/09 17:16:20;;;;;;;3.80;1.40;;;23.00;99.90;;;;;;4915908;29;20190;-73
2021/08/09 17:18:46;;;;;;;1.97;1.20;;;22.90;99.90;;;;;;4915509;29;20970;-72
2021/08/09 17:21:11;;;;;;;4.63;1.17;;;22.90;99.90;;;;;;4915178;29;20222;-72